createdAt,value
2023-01-29T00:00:22.230Z,9.48
2023-01-29T00:02:48.733Z,10.48
2023-01-29T00:05:26.885Z,10.50
2023-01-29T00:07:53.964Z,10.85
2023-01-29T00:10:20.386Z,10.20
2023-01-29T00:12:46.765Z,10.70
2023-01-29T00:15:13.186Z,10.45
2023-01-29T00:17:39.543Z,10.33
2023-01-29T00:20:06.502Z,10.15
2023-01-29T00:22:32.864Z,9.90
2023-01-29T00:24:59.395Z,10.43
2023-01-29T00:27:25.796Z,10.85
2023-01-29T00:30:11.845Z,10.30
2023-01-29T00:32:39.589Z,10.00
2023-01-29T00:35:07.385Z,10.68
2023-01-29T00:37:33.798Z,10.02
2023-01-29T00:40:00.364Z,10.52
2023-01-29T00:42:45.191Z,9.80
2023-01-29T00:45:12.684Z,10.13
2023-01-29T00:47:39.103Z,10.20
2023-01-29T00:50:09.437Z,10.05
2023-01-29T00:52:36.752Z,10.98
2023-01-29T00:55:04.952Z,10.47
2023-01-29T00:57:33.562Z,10.48
2023-01-29T01:00:00.410Z,9.68
2023-01-29T01:02:46.185Z,9.80
2023-01-29T01:05:19.291Z,10.52
2023-01-29T01:07:52.945Z,10.27
2023-01-29T01:10:39.566Z,9.38
2023-01-29T01:13:07.182Z,11.30
2023-01-29T01:15:40.091Z,9.77
2023-01-29T01:18:06.907Z,9.80
2023-01-29T01:20:35.638Z,9.47
2023-01-29T01:23:02.363Z,9.98
2023-01-29T01:25:28.880Z,10.35
2023-01-29T01:27:56.988Z,9.20
2023-01-29T01:30:24.210Z,10.13
2023-01-29T01:32:50.783Z,10.40
2023-01-29T01:35:17.401Z,9.68
2023-01-29T01:37:43.819Z,9.43
2023-01-29T01:40:18.239Z,9.23
2023-01-29T01:42:49.301Z,9.15
2023-01-29T01:45:35.805Z,9.03
2023-01-29T01:48:21.009Z,9.32
2023-01-29T01:50:59.582Z,9.13
2023-01-29T01:53:34.353Z,9.80
2023-01-29T01:56:06.613Z,9.20
2023-01-29T01:58:40.891Z,10.07
2023-01-29T02:01:09.221Z,9.95
2023-01-29T02:04:06.415Z,9.57
2023-01-29T02:06:53.751Z,8.85
2023-01-29T02:09:34.818Z,9.15
2023-01-29T02:12:04.134Z,9.30
2023-01-29T02:14:31.941Z,9.07
2023-01-29T02:17:01.396Z,9.82
2023-01-29T02:19:58.275Z,9.73
2023-01-29T02:22:35.725Z,9.13
2023-01-29T02:25:16.091Z,9.90
2023-01-29T02:27:48.625Z,9.18
2023-01-29T02:30:30.744Z,10.38
2023-01-29T02:33:07.522Z,9.43
2023-01-29T02:35:46.131Z,9.13
2023-01-29T02:38:31.800Z,10.07
2023-01-29T02:41:07.990Z,9.23
2023-01-29T02:43:47.898Z,9.88
2023-01-29T02:46:39.711Z,9.48
2023-01-29T02:49:34.872Z,9.05
2023-01-29T02:52:16.929Z,10.00
2023-01-29T02:55:10.493Z,9.65
2023-01-29T02:57:43.639Z,10.50
2023-01-29T03:00:21.099Z,10.60
2023-01-29T03:03:41.774Z,9.63
2023-01-29T03:06:22.791Z,9.60
2023-01-29T03:08:56.356Z,10.32
2023-01-29T03:11:22.965Z,10.63
2023-01-29T03:13:58.440Z,10.13
2023-01-29T03:16:42.902Z,10.57
2023-01-29T03:19:39.673Z,9.87
2023-01-29T03:22:08.951Z,10.20
2023-01-29T03:24:58.963Z,10.10
2023-01-29T03:27:48.245Z,10.35
2023-01-29T03:30:36.959Z,10.73
2023-01-29T03:33:09.065Z,10.87
2023-01-29T03:35:41.832Z,11.77
2023-01-29T03:38:11.363Z,12.10
2023-01-29T03:40:49.346Z,11.68
2023-01-29T03:43:35.509Z,11.32
2023-01-29T03:46:10.352Z,11.87
2023-01-29T03:48:43.940Z,10.98
2023-01-29T03:51:12.980Z,12.18
2023-01-29T03:53:54.698Z,11.65
2023-01-29T03:56:33.948Z,11.80
2023-01-29T03:59:41.092Z,12.23
2023-01-29T04:02:18.020Z,11.15
2023-01-29T04:04:46.953Z,11.70
2023-01-29T04:07:17.562Z,11.43
2023-01-29T04:09:48.700Z,12.15
2023-01-29T04:12:20.412Z,12.03
2023-01-29T04:14:49.684Z,11.95
2023-01-29T04:17:21.505Z,11.52
2023-01-29T04:19:47.972Z,12.05
2023-01-29T04:22:22.556Z,12.60
2023-01-29T04:24:50.852Z,11.33
2023-01-29T04:27:29.758Z,11.88
2023-01-29T04:30:26.968Z,13.10
2023-01-29T04:33:18.069Z,12.55
2023-01-29T04:36:00.049Z,13.02
2023-01-29T04:38:50.864Z,11.70
2023-01-29T04:41:28.297Z,11.93
2023-01-29T04:44:10.844Z,11.93
2023-01-29T04:46:46.366Z,12.27
2023-01-29T04:49:31.302Z,12.40
2023-01-29T04:52:09.009Z,12.43
2023-01-29T04:54:43.477Z,12.15
2023-01-29T04:57:34.546Z,12.45
2023-01-29T05:00:08.494Z,11.45
2023-01-29T05:02:39.309Z,12.32
2023-01-29T05:05:07.736Z,11.70
2023-01-29T05:07:37.065Z,12.07
2023-01-29T05:10:08.412Z,12.60
2023-01-29T05:12:37.163Z,12.52
2023-01-29T05:15:09.076Z,12.25
2023-01-29T05:17:35.526Z,12.43
2023-01-29T05:20:01.956Z,12.45
2023-01-29T05:22:29.344Z,12.63
2023-01-29T05:24:55.735Z,11.98
2023-01-29T05:27:50.740Z,12.98
2023-01-29T05:30:17.574Z,11.77
2023-01-29T05:32:44.086Z,12.43
2023-01-29T05:35:10.615Z,12.60
2023-01-29T05:37:37.070Z,12.98
2023-01-29T05:40:03.763Z,12.77
2023-01-29T05:42:30.670Z,12.83
2023-01-29T05:44:57.024Z,12.80
2023-01-29T05:47:23.519Z,12.18
2023-01-29T05:49:49.840Z,13.70
2023-01-29T05:52:16.260Z,12.70
2023-01-29T05:54:42.748Z,12.63
2023-01-29T05:57:09.134Z,12.07
2023-01-29T05:59:35.453Z,13.60
2023-01-29T06:02:01.921Z,12.93
2023-01-29T06:04:28.362Z,12.73
2023-01-29T06:06:54.947Z,12.40
2023-01-29T06:09:21.276Z,11.77
2023-01-29T06:11:47.661Z,12.35
2023-01-29T06:14:13.994Z,12.20
2023-01-29T06:16:40.420Z,13.20
2023-01-29T06:19:07.088Z,13.20
2023-01-29T06:21:33.543Z,12.38
2023-01-29T06:24:00.022Z,12.15
2023-01-29T06:26:26.478Z,12.20
2023-01-29T06:28:52.888Z,12.55
2023-01-29T06:31:36.913Z,13.10
2023-01-29T06:34:04.695Z,11.90
2023-01-29T06:36:31.105Z,12.30
2023-01-29T06:38:57.514Z,11.50
2023-01-29T06:41:25.356Z,11.77
2023-01-29T06:43:52.032Z,11.27
2023-01-29T06:46:18.387Z,11.90
2023-01-29T06:48:44.731Z,11.32
2023-01-29T06:51:11.772Z,12.00
2023-01-29T06:53:39.334Z,12.35
2023-01-29T06:56:06.531Z,11.23
2023-01-29T06:58:33.115Z,10.75
2023-01-29T07:01:15.531Z,10.38
2023-01-29T07:03:51.817Z,10.95
2023-01-29T07:06:18.668Z,12.30
2023-01-29T07:08:45.520Z,10.70
2023-01-29T07:11:12.577Z,12.18
2023-01-29T07:13:39.037Z,12.90
2023-01-29T07:16:06.707Z,12.43
2023-01-29T07:18:33.281Z,11.40
2023-01-29T07:21:04.463Z,13.37
2023-01-29T07:23:30.828Z,13.43
2023-01-29T07:26:01.126Z,11.82
2023-01-29T07:28:27.539Z,12.25
2023-01-29T07:30:58.622Z,12.77
2023-01-29T07:33:25.404Z,12.13
2023-01-29T07:35:52.236Z,12.30
2023-01-29T07:38:18.731Z,12.40
2023-01-29T07:40:45.184Z,11.85
2023-01-29T07:43:11.662Z,11.23
2023-01-29T07:45:39.892Z,11.27
2023-01-29T07:48:09.738Z,11.20
2023-01-29T07:50:36.627Z,11.88
2023-01-29T07:53:03.620Z,11.77
2023-01-29T07:55:31.047Z,12.43
2023-01-29T07:57:59.395Z,11.63
2023-01-29T08:00:26.018Z,11.93
2023-01-29T08:02:52.759Z,10.98
2023-01-29T08:05:20.110Z,11.93
2023-01-29T08:07:51.558Z,11.43
2023-01-29T08:10:27.820Z,11.70
2023-01-29T08:12:59.261Z,10.40
2023-01-29T08:15:26.240Z,11.93
2023-01-29T08:20:39.985Z,11.52
2023-01-29T08:23:10.140Z,9.93
2023-01-29T08:25:36.640Z,11.40
2023-01-29T08:28:04.516Z,11.30
2023-01-29T08:30:32.832Z,10.52
2023-01-29T08:32:59.214Z,11.60
2023-01-29T08:35:26.330Z,10.33
2023-01-29T08:38:03.573Z,10.65
2023-01-29T08:40:32.230Z,11.20
2023-01-29T08:43:04.548Z,10.73
2023-01-29T08:45:34.052Z,10.88
2023-01-29T08:48:00.506Z,10.63
2023-01-29T08:50:26.999Z,11.00
2023-01-29T08:52:59.075Z,11.75
2023-01-29T08:55:26.161Z,12.02
2023-01-29T08:57:52.538Z,13.25
2023-01-29T09:00:19.542Z,11.00
2023-01-29T09:02:46.025Z,11.07
2023-01-29T09:05:12.409Z,10.57
2023-01-29T09:07:38.779Z,10.48
2023-01-29T09:10:05.748Z,11.20
2023-01-29T09:12:32.103Z,11.00
2023-01-29T09:14:58.444Z,11.18
2023-01-29T09:17:24.761Z,10.63
2023-01-29T09:19:52.944Z,11.13
2023-01-29T09:22:20.270Z,11.52
2023-01-29T09:24:46.672Z,11.43
2023-01-29T09:27:13.562Z,10.55
2023-01-29T09:29:39.998Z,11.65
2023-01-29T09:32:06.924Z,10.98
2023-01-29T09:34:33.665Z,11.48
2023-01-29T09:37:00.189Z,10.20
2023-01-29T09:39:26.564Z,11.90
2023-01-29T09:42:01.878Z,10.77
2023-01-29T09:44:40.463Z,10.88
2023-01-29T09:47:12.763Z,10.30
2023-01-29T09:49:47.867Z,10.93
2023-01-29T09:52:55.764Z,10.68
2023-01-29T09:55:28.554Z,12.02
2023-01-29T09:57:59.279Z,10.70
2023-01-29T10:00:30.565Z,9.73
2023-01-29T10:03:21.057Z,10.37
2023-01-29T10:05:56.457Z,10.70
2023-01-29T10:08:46.718Z,10.73
2023-01-29T10:11:26.459Z,10.77
2023-01-29T10:14:14.524Z,10.48
2023-01-29T10:17:06.959Z,11.83
2023-01-29T10:19:42.463Z,12.02
2023-01-29T10:22:43.425Z,11.90
2023-01-29T10:25:19.666Z,11.45
2023-01-29T10:27:53.149Z,10.45
2023-01-29T10:30:47.423Z,10.27
2023-01-29T10:33:49.481Z,10.98
2023-01-29T10:36:34.044Z,11.30
2023-01-29T10:39:00.540Z,10.98
2023-01-29T10:41:40.959Z,11.27
2023-01-29T10:44:36.391Z,12.17
2023-01-29T10:47:29.258Z,11.23
2023-01-29T10:50:15.297Z,11.25
2023-01-29T10:53:18.724Z,11.75
2023-01-29T10:56:23.584Z,11.48
2023-01-29T10:59:05.294Z,12.07
2023-01-29T11:01:31.837Z,10.73
2023-01-29T11:04:03.613Z,12.55
2023-01-29T11:06:32.844Z,12.93
2023-01-29T11:09:33.157Z,11.45
2023-01-29T11:12:10.518Z,15.67
2023-01-29T11:14:47.962Z,13.57
2023-01-29T11:17:16.807Z,12.20
2023-01-29T11:19:46.137Z,12.55
2023-01-29T11:22:13.733Z,12.80
2023-01-29T11:24:40.128Z,13.03
2023-01-29T11:27:33.589Z,12.93
2023-01-29T11:30:00.143Z,13.07
2023-01-29T11:32:30.457Z,12.25
2023-01-29T11:34:56.762Z,12.65
2023-01-29T11:37:23.705Z,13.10
2023-01-29T11:39:50.573Z,13.45
2023-01-29T11:42:22.396Z,13.30
2023-01-29T11:44:49.393Z,12.75
2023-01-29T11:47:26.908Z,13.68
2023-01-29T11:50:00.900Z,12.97
2023-01-29T11:52:36.043Z,13.73
2023-01-29T11:55:07.095Z,13.65
2023-01-29T11:57:38.724Z,14.73
2023-01-29T12:00:17.836Z,14.45
2023-01-29T12:03:10.488Z,12.70
2023-01-29T12:05:39.201Z,13.18
2023-01-29T12:08:17.061Z,13.35
2023-01-29T12:10:44.367Z,13.80
2023-01-29T12:13:10.870Z,13.20
2023-01-29T12:15:41.945Z,14.30
2023-01-29T12:18:29.987Z,13.43
2023-01-29T12:21:03.365Z,13.43
2023-01-29T12:23:41.683Z,13.57
2023-01-29T12:26:15.932Z,14.85
2023-01-29T12:28:54.679Z,14.30
2023-01-29T12:31:32.607Z,14.60
2023-01-29T12:34:25.160Z,13.52
2023-01-29T12:37:15.164Z,13.82
2023-01-29T12:39:41.644Z,14.45
2023-01-29T12:42:22.933Z,13.63
2023-01-29T12:44:57.612Z,14.20
2023-01-29T12:47:47.129Z,13.80
2023-01-29T12:50:28.272Z,13.40
2023-01-29T12:53:05.074Z,14.07
2023-01-29T12:55:38.145Z,14.03
2023-01-29T12:58:12.686Z,13.88
2023-01-29T13:00:43.399Z,13.48
2023-01-29T13:03:27.560Z,14.98
2023-01-29T13:06:17.151Z,14.85
2023-01-29T13:08:53.762Z,15.00
2023-01-29T13:11:31.484Z,14.55
2023-01-29T13:14:07.973Z,14.93
2023-01-29T13:16:40.586Z,14.20
2023-01-29T13:19:21.056Z,15.60
2023-01-29T13:21:48.602Z,15.03
2023-01-29T13:24:18.445Z,16.40
2023-01-29T13:26:46.919Z,15.48
2023-01-29T13:29:31.752Z,14.73
2023-01-29T13:32:00.676Z,14.75
2023-01-29T13:34:31.689Z,15.27
2023-01-29T13:37:01.475Z,14.88
2023-01-29T13:39:35.158Z,15.30
2023-01-29T13:42:14.907Z,15.30
2023-01-29T13:44:41.525Z,14.77
2023-01-29T13:47:12.152Z,15.10
2023-01-29T13:49:53.390Z,14.48
2023-01-29T13:52:40.972Z,15.25
2023-01-29T13:55:22.329Z,15.05
2023-01-29T13:57:52.310Z,14.30
2023-01-29T14:00:20.309Z,14.83
2023-01-29T14:02:55.778Z,14.60
2023-01-29T14:05:31.492Z,13.50
2023-01-29T14:07:59.347Z,14.93
2023-01-29T14:10:30.776Z,14.80
2023-01-29T14:13:03.070Z,14.47
2023-01-29T14:15:34.651Z,14.50
2023-01-29T14:18:24.970Z,13.73
2023-01-29T14:21:00.231Z,13.38
2023-01-29T14:23:41.972Z,14.27
2023-01-29T14:26:43.759Z,13.20
2023-01-29T14:29:18.798Z,13.65
2023-01-29T14:32:06.228Z,14.52
2023-01-29T14:34:49.373Z,14.35
2023-01-29T14:37:15.680Z,12.85
2023-01-29T14:39:45.099Z,13.67
2023-01-29T14:42:25.843Z,13.82
2023-01-29T14:45:00.165Z,14.38
2023-01-29T14:47:32.631Z,13.68
2023-01-29T14:50:01.897Z,12.80
2023-01-29T14:52:50.513Z,13.90
2023-01-29T14:55:30.947Z,14.38
2023-01-29T14:57:58.412Z,13.27
2023-01-29T15:00:29.141Z,13.65
2023-01-29T15:03:02.332Z,12.75
2023-01-29T15:05:37.466Z,13.37
2023-01-29T15:08:13.669Z,13.20
2023-01-29T15:11:10.724Z,13.57
2023-01-29T15:13:47.837Z,13.52
2023-01-29T15:16:24.187Z,13.23
2023-01-29T15:18:54.936Z,13.80
2023-01-29T15:21:21.443Z,12.55
2023-01-29T15:23:48.713Z,13.02
2023-01-29T15:26:24.779Z,13.93
2023-01-29T15:29:05.046Z,13.32
2023-01-29T15:31:32.234Z,14.03
2023-01-29T15:34:04.752Z,13.60
2023-01-29T15:36:32.036Z,13.90
2023-01-29T15:39:17.155Z,13.93
2023-01-29T15:41:44.700Z,13.38
2023-01-29T15:44:22.592Z,14.03
2023-01-29T15:46:57.109Z,12.80
2023-01-29T15:49:37.975Z,13.48
2023-01-29T15:52:08.195Z,12.80
2023-01-29T15:54:35.970Z,13.35
2023-01-29T15:57:03.517Z,12.83
2023-01-29T15:59:34.621Z,12.30
2023-01-29T16:02:35.294Z,13.18
2023-01-29T16:05:02.520Z,12.63
2023-01-29T16:07:29.975Z,13.35
2023-01-29T16:09:57.402Z,12.60
2023-01-29T16:12:24.421Z,13.48
2023-01-29T16:14:51.535Z,12.10
2023-01-29T16:17:30.574Z,13.32
2023-01-29T16:19:59.218Z,12.38
2023-01-29T16:22:30.525Z,12.53
2023-01-29T16:25:02.020Z,12.57
2023-01-29T16:27:30.917Z,13.77
2023-01-29T16:29:57.691Z,12.35
2023-01-29T16:32:24.284Z,13.20
2023-01-29T16:34:57.516Z,12.30
2023-01-29T16:37:30.505Z,13.30
2023-01-29T16:39:57.580Z,11.70
2023-01-29T16:42:31.390Z,12.70
2023-01-29T16:45:06.050Z,12.15
2023-01-29T16:47:41.510Z,12.10
2023-01-29T16:50:54.896Z,13.20
2023-01-29T16:53:24.443Z,12.50
2023-01-29T16:55:52.319Z,13.75
2023-01-29T16:58:28.136Z,13.45
2023-01-29T17:01:03.560Z,13.53
2023-01-29T17:03:33.225Z,12.45
2023-01-29T17:06:09.068Z,12.68
2023-01-29T17:08:36.070Z,13.45
2023-01-29T17:11:03.076Z,14.40
2023-01-29T17:13:42.667Z,13.83
2023-01-29T17:16:28.034Z,13.27
2023-01-29T17:18:54.801Z,13.77
2023-01-29T17:21:21.331Z,13.43
2023-01-29T17:23:47.746Z,13.32
2023-01-29T17:26:15.060Z,13.37
2023-01-29T17:28:41.937Z,14.32
2023-01-29T17:31:08.847Z,14.00
2023-01-29T17:33:42.299Z,14.52
2023-01-29T17:36:14.266Z,14.05
2023-01-29T17:38:41.133Z,15.63
2023-01-29T17:41:11.548Z,14.90
2023-01-29T17:43:38.010Z,15.38
2023-01-29T17:46:04.829Z,14.57
2023-01-29T17:48:31.811Z,14.13
2023-01-29T17:51:03.669Z,14.13
2023-01-29T17:53:44.556Z,14.07
2023-01-29T17:56:23.542Z,13.82
2023-01-29T17:58:49.992Z,14.00
2023-01-29T18:01:16.470Z,14.27
2023-01-29T18:03:42.927Z,14.93
2023-01-29T18:06:12.500Z,14.43
2023-01-29T18:08:39.705Z,15.35
2023-01-29T18:11:06.289Z,14.88
2023-01-29T18:13:32.915Z,14.68
2023-01-29T18:15:59.426Z,14.30
2023-01-29T18:18:25.863Z,14.73
2023-01-29T18:20:52.340Z,14.27
2023-01-29T18:23:18.809Z,14.05
2023-01-29T18:25:45.350Z,14.82
2023-01-29T18:28:17.150Z,14.37
2023-01-29T18:30:47.007Z,14.25
2023-01-29T18:33:14.293Z,14.85
2023-01-29T18:35:40.768Z,14.57
2023-01-29T18:38:07.155Z,15.40
2023-01-29T18:40:33.621Z,13.40
2023-01-29T18:43:00.878Z,14.48
2023-01-29T18:45:28.678Z,13.82
2023-01-29T18:47:55.424Z,14.95
2023-01-29T18:50:26.198Z,14.55
2023-01-29T18:52:55.793Z,15.07
2023-01-29T18:55:23.388Z,14.68
2023-01-29T18:58:25.851Z,15.50
2023-01-29T19:00:40.346Z,14.13
2023-01-29T19:03:06.811Z,13.55
2023-01-29T19:05:34.003Z,13.83
2023-01-29T19:08:00.899Z,14.35
2023-01-29T19:10:27.377Z,13.82
2023-01-29T19:12:53.771Z,14.85
2023-01-29T19:15:21.940Z,14.38
2023-01-29T19:17:49.568Z,15.73
2023-01-29T19:20:16.049Z,14.65
2023-01-29T19:22:42.438Z,14.80
2023-01-29T19:25:09.408Z,13.77
2023-01-29T19:27:35.856Z,14.38
2023-01-29T19:30:05.416Z,15.03
2023-01-29T19:32:32.320Z,14.77
2023-01-29T19:34:58.795Z,13.75
2023-01-29T19:37:25.469Z,13.52
2023-01-29T19:39:52.020Z,14.23
2023-01-29T19:42:20.305Z,14.03
2023-01-29T19:44:46.690Z,14.82
2023-01-29T19:47:13.204Z,13.68
2023-01-29T19:49:40.496Z,13.73
2023-01-29T19:52:14.655Z,14.90
2023-01-29T19:54:46.119Z,13.80
2023-01-29T19:57:12.536Z,14.63
2023-01-29T19:59:38.997Z,16.40
2023-01-29T20:02:05.510Z,15.20
2023-01-29T20:04:32.284Z,13.82
2023-01-29T20:06:59.417Z,14.10
2023-01-29T20:09:25.925Z,14.52
2023-01-29T20:11:52.440Z,15.10
2023-01-29T20:14:18.890Z,14.65
2023-01-29T20:16:45.302Z,13.80
2023-01-29T20:19:13.667Z,15.23
2023-01-29T20:21:41.765Z,15.00
2023-01-29T20:24:12.155Z,15.77
2023-01-29T20:26:38.952Z,14.75
2023-01-29T20:29:06.387Z,13.45
2023-01-29T20:31:33.611Z,14.47
2023-01-29T20:34:00.238Z,15.02
2023-01-29T20:36:26.723Z,14.95
2023-01-29T20:38:53.145Z,15.25
2023-01-29T20:41:19.636Z,14.77
2023-01-29T20:43:47.140Z,15.47
2023-01-29T20:46:13.861Z,14.50
2023-01-29T20:48:41.896Z,15.55
2023-01-29T20:51:15.533Z,14.85
2023-01-29T20:53:45.033Z,14.85
2023-01-29T20:56:12.125Z,14.77
2023-01-29T20:58:40.763Z,14.95
2023-01-29T21:01:09.378Z,14.40
2023-01-29T21:03:35.812Z,15.35
2023-01-29T21:06:02.273Z,15.20
2023-01-29T21:08:28.699Z,14.67
2023-01-29T21:10:55.058Z,14.98
2023-01-29T21:13:21.550Z,15.20
2023-01-29T21:15:50.943Z,15.07
2023-01-29T21:18:17.543Z,14.98
2023-01-29T21:20:44.483Z,15.47
2023-01-29T21:23:11.138Z,14.05
2023-01-29T21:25:38.613Z,14.40
2023-01-29T21:28:06.054Z,15.02
2023-01-29T21:30:32.930Z,14.68
2023-01-29T21:32:59.639Z,15.37
2023-01-29T21:35:25.992Z,15.35
2023-01-29T21:37:52.396Z,14.65
2023-01-29T21:40:20.115Z,15.50
2023-01-29T21:43:05.764Z,16.40
2023-01-29T21:45:34.162Z,15.67
2023-01-29T21:48:01.367Z,14.32
2023-01-29T21:50:27.769Z,14.80
2023-01-29T21:52:54.142Z,15.68
2023-01-29T21:55:20.549Z,15.25
2023-01-29T21:57:47.030Z,14.93
2023-01-29T22:00:13.741Z,15.15
2023-01-29T22:02:40.399Z,15.05
2023-01-29T22:05:18.751Z,15.05
2023-01-29T22:07:45.640Z,14.65
2023-01-29T22:10:12.456Z,13.90
2023-01-29T22:12:39.736Z,14.55
2023-01-29T22:15:07.569Z,16.23
2023-01-29T22:17:34.252Z,15.18
2023-01-29T22:20:01.066Z,15.40
2023-01-29T22:22:27.602Z,15.10
2023-01-29T22:24:55.074Z,15.23
2023-01-29T22:27:21.501Z,14.30
2023-01-29T22:29:47.918Z,16.00
2023-01-29T22:32:14.417Z,14.98
2023-01-29T22:34:40.811Z,14.87
2023-01-29T22:37:07.461Z,15.70
2023-01-29T22:39:33.953Z,14.60
2023-01-29T22:42:00.413Z,17.25
2023-01-29T22:44:26.782Z,16.95
2023-01-29T22:46:53.174Z,15.30
2023-01-29T22:49:19.721Z,13.98
2023-01-29T22:51:47.145Z,15.88
2023-01-29T22:54:15.476Z,15.07
2023-01-29T22:56:41.881Z,15.45
2023-01-29T22:59:10.031Z,15.57
2023-01-29T23:01:36.465Z,15.20
2023-01-29T23:04:02.859Z,15.52
2023-01-29T23:06:29.228Z,14.52
2023-01-29T23:08:55.680Z,14.02
2023-01-29T23:11:23.497Z,14.47
2023-01-29T23:13:52.644Z,14.77
2023-01-29T23:16:21.292Z,15.95
2023-01-29T23:18:53.040Z,14.57
2023-01-29T23:21:21.167Z,14.60
2023-01-29T23:23:47.519Z,13.70
2023-01-29T23:26:33.687Z,14.93
2023-01-29T23:29:00.378Z,14.07
2023-01-29T23:31:26.886Z,14.68
2023-01-29T23:33:53.296Z,13.00
2023-01-29T23:36:19.699Z,13.80
2023-01-29T23:38:46.242Z,14.98
2023-01-29T23:41:12.634Z,12.52
2023-01-29T23:43:39.012Z,12.48
2023-01-29T23:46:05.607Z,13.15
2023-01-29T23:48:31.991Z,13.70
2023-01-29T23:50:58.384Z,13.25
2023-01-29T23:53:24.806Z,12.95
2023-01-29T23:56:02.413Z,12.95
2023-01-29T23:58:29.829Z,13.40
